Time;durP1;ratioP1;P1;durP2;ratioP2;P2;SDS_P1;SDS_P2;PMS_P1;PMS_P2;Temp;Humidity;BMP_temperature;BMP_pressure;BME280_temperature;BME280_humidity;BME280_pressure;Samples;Min_cycle;Max_cycle;Signal;HPM_P1;HPM_P2
2024/01/13 00:02:05;;;;;;;0.75;0.32;;;3.40;99.90;;;;;;4991473;28;20045;-72
2024/01/13 00:04:31;;;;;;;0.45;0.30;;;3.40;99.90;;;;;;4973440;28;20034;-72
2024/01/13 00:06:56;;;;;;;0.22;0.13;;;3.40;99.90;;;;;;4991427;28;20096;-73
2024/01/13 00:09:22;;;;;;;0.22;0.22;;;3.40;99.90;;;;;;4991172;28;20467;-72
2024/01/13 00:11:48;;;;;;;0.10;0.10;;;3.40;99.90;;;;;;4974214;28;20034;-72
2024/01/13 00:14:13;;;;;;;0.20;0.20;;;3.50;99.90;;;;;;4991532;28;20099;-72
2024/01/13 00:16:39;;;;;;;0.13;0.10;;;3.40;99.90;;;;;;4975349;28;20388;-72
2024/01/13 00:19:05;;;;;;;0.20;0.17;;;3.40;99.90;;;;;;4990719;28;20042;-73
2024/01/13 00:21:31;;;;;;;0.10;0.10;;;3.50;99.90;;;;;;4990149;28;20050;-73
2024/01/13 00:23:56;;;;;;;0.10;0.10;;;3.40;99.90;;;;;;4972673;28;20367;-72
2024/01/13 00:26:23;;;;;;;0.25;0.20;;;3.50;99.90;;;;;;4991418;28;20053;-72
2024/01/13 00:28:48;;;;;;;0.00;0.00;;;3.60;99.90;;;;;;4975012;28;20033;-72
2024/01/13 00:31:14;;;;;;;1.85;0.20;;;3.50;99.90;;;;;;4986870;28;20042;-72
2024/01/13 00:33:43;;;;;;;2.20;0.35;;;3.50;99.90;;;;;;4991454;28;20448;-72
2024/01/13 00:36:09;;;;;;;0.32;0.15;;;3.50;99.90;;;;;;4991466;28;20567;-72
2024/01/13 00:38:35;;;;;;;0.20;0.20;;;3.60;99.90;;;;;;4990207;28;20511;-72
2024/01/13 00:41:03;;;;;;;0.10;0.10;;;3.50;99.90;;;;;;4972820;28;20050;-72
2024/01/13 00:43:29;;;;;;;1.67;0.22;;;3.50;99.90;;;;;;4987980;28;20046;-72
2024/01/13 00:45:54;;;;;;;0.00;0.00;;;3.50;99.90;;;;;;4970814;28;20516;-72
2024/01/13 00:48:20;;;;;;;0.30;0.20;;;3.60;99.90;;;;;;4974040;28;20054;-73
2024/01/13 00:50:46;;;;;;;0.00;0.00;;;3.50;99.90;;;;;;4991658;28;20081;-73
2024/01/13 00:53:11;;;;;;;0.00;0.00;;;3.60;99.90;;;;;;4990500;28;20042;-72
2024/01/13 00:55:37;;;;;;;0.85;0.20;;;3.60;99.90;;;;;;4990833;28;20312;-72
2024/01/13 00:58:03;;;;;;;0.10;0.10;;;3.60;99.90;;;;;;4990650;28;20202;-73
2024/01/13 01:00:29;;;;;;;0.20;0.10;;;3.60;99.90;;;;;;4973351;28;20113;-73
2024/01/13 01:02:55;;;;;;;0.00;0.00;;;3.60;99.90;;;;;;4990245;28;20129;-73
2024/01/13 01:05:20;;;;;;;0.30;0.30;;;3.60;99.90;;;;;;4991401;28;20034;-73
2024/01/13 01:07:47;;;;;;;0.08;0.08;;;3.60;99.90;;;;;;4986556;28;20121;-73
2024/01/13 01:10:13;;;;;;;0.00;0.00;;;3.50;99.90;;;;;;4992481;28;20069;-73
2024/01/13 01:12:39;;;;;;;0.28;0.22;;;3.60;99.90;;;;;;4994869;28;20413;-72
2024/01/13 01:15:05;;;;;;;0.30;0.10;;;3.60;99.90;;;;;;4995089;28;20041;-73
2024/01/13 01:17:31;;;;;;;0.43;0.15;;;3.60;99.90;;;;;;4989644;28;20050;-73
2024/01/13 01:19:57;;;;;;;0.10;0.00;;;3.60;99.90;;;;;;4992029;28;20049;-73
2024/01/13 01:22:23;;;;;;;0.35;0.13;;;3.60;99.90;;;;;;4993863;28;20034;-72
2024/01/13 01:24:48;;;;;;;0.70;0.30;;;3.60;99.90;;;;;;4999154;28;20034;-72
2024/01/13 01:27:14;;;;;;;0.15;0.15;;;3.60;99.90;;;;;;4978270;28;20072;-73
2024/01/13 01:29:40;;;;;;;0.43;0.30;;;3.60;99.90;;;;;;4993943;28;20489;-73
2024/01/13 01:32:05;;;;;;;0.10;0.10;;;3.70;99.90;;;;;;4976693;28;20042;-73
2024/01/13 01:34:31;;;;;;;0.30;0.20;;;3.60;99.90;;;;;;4983849;28;20125;-72
2024/01/13 01:36:57;;;;;;;0.30;0.20;;;3.60;99.90;;;;;;4992808;28;20033;-72
2024/01/13 01:39:23;;;;;;;0.20;0.17;;;3.60;99.90;;;;;;4977965;28;20040;-72
2024/01/13 01:41:48;;;;;;;0.28;0.20;;;3.50;99.90;;;;;;4994032;28;20147;-72
2024/01/13 01:44:14;;;;;;;0.10;0.08;;;3.70;99.90;;;;;;4991071;28;20482;-72
2024/01/13 01:46:42;;;;;;;0.30;0.20;;;3.70;99.90;;;;;;4994416;28;20038;-72
2024/01/13 01:49:13;;;;;;;0.20;0.17;;;3.60;99.90;;;;;;4990617;28;20050;-72
2024/01/13 01:51:39;;;;;;;0.40;0.30;;;3.70;99.90;;;;;;4992689;28;20438;-72
2024/01/13 01:54:05;;;;;;;2.75;0.38;;;3.70;99.90;;;;;;4993148;28;20050;-72
2024/01/13 01:56:34;;;;;;;0.22;0.22;;;3.70;99.90;;;;;;4977714;28;20041;-72
2024/01/13 01:59:02;;;;;;;0.63;0.35;;;3.70;99.90;;;;;;4990986;28;20442;-72
2024/01/13 02:01:30;;;;;;;1.13;0.88;;;3.70;99.90;;;;;;4994399;28;20037;-72
2024/01/13 02:03:57;;;;;;;0.52;0.13;;;3.70;99.90;;;;;;4991856;28;20563;-72
2024/01/13 02:06:23;;;;;;;0.40;0.40;;;3.70;99.90;;;;;;4993440;28;20430;-72
2024/01/13 02:08:49;;;;;;;0.35;0.28;;;3.70;99.90;;;;;;4993171;28;20489;-72
2024/01/13 02:11:15;;;;;;;3.53;0.65;;;3.70;99.90;;;;;;4993750;28;20095;-73
2024/01/13 02:13:43;;;;;;;0.40;0.30;;;3.70;99.90;;;;;;4992692;28;20046;-73
2024/01/13 02:16:10;;;;;;;1.20;0.30;;;3.70;99.90;;;;;;5011021;28;20053;-72
2024/01/13 02:18:37;;;;;;;0.20;0.20;;;3.70;99.90;;;;;;4992133;28;20052;-73
2024/01/13 02:21:02;;;;;;;0.08;0.08;;;3.70;99.90;;;;;;4974935;28;20052;-73
2024/01/13 02:23:29;;;;;;;0.80;0.52;;;3.70;99.90;;;;;;4992834;28;20037;-73
2024/01/13 02:25:55;;;;;;;0.52;0.38;;;3.70;99.90;;;;;;4992115;28;20444;-73
2024/01/13 02:28:21;;;;;;;0.95;0.52;;;3.70;99.90;;;;;;4993787;28;20125;-73
2024/01/13 02:30:47;;;;;;;0.95;0.55;;;3.70;99.90;;;;;;4975902;28;20184;-73
2024/01/13 02:33:13;;;;;;;1.33;0.60;;;3.70;99.90;;;;;;4994639;28;20189;-74
2024/01/13 02:35:38;;;;;;;0.55;0.45;;;3.70;99.90;;;;;;4972217;28;20038;-73
2024/01/13 02:38:04;;;;;;;0.55;0.52;;;3.70;99.90;;;;;;4992579;28;20132;-73
2024/01/13 02:40:30;;;;;;;0.40;0.40;;;3.70;99.90;;;;;;4977085;28;20125;-73
2024/01/13 02:42:56;;;;;;;0.20;0.20;;;3.70;99.90;;;;;;4992614;28;20037;-73
2024/01/13 02:45:21;;;;;;;4.72;0.50;;;3.70;99.90;;;;;;4992989;28;20547;-73
2024/01/13 02:48:01;;;;;;;0.98;0.85;;;3.70;99.90;;;;;;4974720;28;20065;-73
2024/01/13 02:50:26;;;;;;;0.47;0.30;;;3.70;99.90;;;;;;4992564;28;20050;-73
2024/01/13 02:52:52;;;;;;;0.55;0.45;;;3.70;99.90;;;;;;4991361;28;20060;-73
2024/01/13 02:55:18;;;;;;;0.43;0.38;;;3.70;99.90;;;;;;4973917;28;20136;-73
2024/01/13 02:57:44;;;;;;;0.55;0.40;;;3.70;99.90;;;;;;4992882;28;20033;-73
2024/01/13 03:00:10;;;;;;;1.08;0.95;;;3.70;99.90;;;;;;4993203;28;20048;-73
2024/01/13 03:02:36;;;;;;;1.23;0.90;;;3.70;99.90;;;;;;4991937;28;20045;-73
2024/01/13 03:05:02;;;;;;;0.50;0.40;;;3.70;99.90;;;;;;4976572;28;20034;-73
2024/01/13 03:07:28;;;;;;;0.70;0.50;;;3.70;99.90;;;;;;4983637;28;20046;-73
2024/01/13 03:09:53;;;;;;;1.88;0.43;;;3.70;99.90;;;;;;4995488;28;20334;-73
2024/01/13 03:12:19;;;;;;;0.32;0.22;;;3.70;99.90;;;;;;4991714;28;20030;-73
2024/01/13 03:14:45;;;;;;;0.32;0.22;;;3.70;99.90;;;;;;4974868;28;20045;-73
2024/01/13 03:17:11;;;;;;;1.10;0.52;;;3.70;99.90;;;;;;4992509;28;20042;-73
2024/01/13 03:19:37;;;;;;;0.40;0.28;;;3.70;99.90;;;;;;4989537;28;20223;-73
2024/01/13 03:22:03;;;;;;;0.82;0.43;;;3.70;99.90;;;;;;4987573;28;20037;-73
2024/01/13 03:24:28;;;;;;;0.38;0.30;;;3.70;99.90;;;;;;4991793;28;20049;-73
2024/01/13 03:26:54;;;;;;;0.98;0.40;;;3.70;99.90;;;;;;4991389;28;20107;-73
2024/01/13 03:29:20;;;;;;;0.50;0.40;;;3.70;99.90;;;;;;4996248;28;20072;-73
2024/01/13 03:31:45;;;;;;;1.30;0.82;;;3.70;99.90;;;;;;4992053;28;20440;-73
2024/01/13 03:34:11;;;;;;;1.02;0.38;;;3.80;99.90;;;;;;4970329;28;20034;-73
2024/01/13 03:36:37;;;;;;;1.65;0.35;;;3.70;99.90;;;;;;4987994;28;20120;-73
2024/01/13 03:39:03;;;;;;;0.10;0.10;;;3.70;99.90;;;;;;4988161;28;20076;-73
2024/01/13 03:41:29;;;;;;;0.30;0.20;;;3.70;99.90;;;;;;4990749;28;20164;-73
2024/01/13 03:43:57;;;;;;;0.30;0.10;;;3.70;99.90;;;;;;4973350;28;20128;-73
2024/01/13 03:46:23;;;;;;;0.75;0.15;;;3.70;99.90;;;;;;4974000;28;20038;-73
2024/01/13 03:48:49;;;;;;;0.55;0.43;;;3.70;99.90;;;;;;4974273;28;20069;-73
2024/01/13 03:51:16;;;;;;;0.85;0.40;;;3.80;99.90;;;;;;5005083;28;20050;-72
2024/01/13 03:53:42;;;;;;;0.32;0.30;;;3.70;99.90;;;;;;4991111;28;20541;-73
2024/01/13 03:56:08;;;;;;;0.43;0.30;;;3.80;99.90;;;;;;4990311;28;20065;-73
2024/01/13 03:58:38;;;;;;;0.65;0.30;;;3.70;99.90;;;;;;4992186;28;20049;-72
2024/01/13 04:01:04;;;;;;;0.40;0.20;;;3.70;99.90;;;;;;4990844;28;20049;-73
2024/01/13 04:03:29;;;;;;;0.10;0.10;;;3.80;99.90;;;;;;4992375;28;20330;-72
2024/01/13 04:05:56;;;;;;;0.35;0.30;;;3.70;99.90;;;;;;4991900;28;20041;-73
2024/01/13 04:08:22;;;;;;;0.60;0.22;;;3.70;99.90;;;;;;4991192;28;20107;-72
2024/01/13 04:10:48;;;;;;;0.35;0.20;;;3.70;99.90;;;;;;4992314;28;20461;-73
2024/01/13 04:13:14;;;;;;;1.92;0.60;;;3.70;99.90;;;;;;4991700;28;20046;-73
2024/01/13 04:15:40;;;;;;;2.63;0.25;;;3.80;99.90;;;;;;4990095;28;20040;-72
2024/01/13 04:18:06;;;;;;;0.52;0.38;;;3.80;99.90;;;;;;4992050;28;20042;-72
2024/01/13 04:20:32;;;;;;;4.75;0.20;;;3.70;99.90;;;;;;4990142;28;20046;-73
2024/01/13 04:22:58;;;;;;;0.50;0.35;;;3.70;99.90;;;;;;4987593;28;20397;-72
2024/01/13 04:25:23;;;;;;;1.20;0.40;;;3.70;99.90;;;;;;4991006;28;20044;-71
2024/01/13 04:27:50;;;;;;;0.30;0.30;;;3.70;99.90;;;;;;4974735;28;20116;-71
2024/01/13 04:30:15;;;;;;;4.28;0.38;;;3.70;99.90;;;;;;4975856;28;20515;-72
2024/01/13 04:32:42;;;;;;;0.17;0.10;;;3.70;99.90;;;;;;4991926;28;20050;-72
2024/01/13 04:35:08;;;;;;;0.88;0.50;;;3.70;99.90;;;;;;4973980;28;20049;-72
2024/01/13 04:37:35;;;;;;;0.50;0.40;;;3.70;99.90;;;;;;4973318;28;20034;-72
2024/01/13 04:40:00;;;;;;;0.13;0.10;;;3.70;99.90;;;;;;4990790;28;20124;-73
2024/01/13 04:42:26;;;;;;;0.30;0.25;;;3.80;99.90;;;;;;4989570;28;20129;-72
2024/01/13 04:44:52;;;;;;;2.28;0.65;;;3.70;99.90;;;;;;4990882;28;20049;-72
2024/01/13 04:47:18;;;;;;;0.52;0.30;;;3.70;99.90;;;;;;4991368;28;20382;-72
2024/01/13 04:49:43;;;;;;;2.47;0.28;;;3.70;99.90;;;;;;4974949;28;20088;-72
2024/01/13 04:52:09;;;;;;;0.47;0.32;;;3.70;99.90;;;;;;4970852;28;20042;-72
2024/01/13 04:54:35;;;;;;;0.20;0.20;;;3.70;99.90;;;;;;4971580;28;20450;-72
2024/01/13 04:57:00;;;;;;;1.92;0.50;;;3.70;99.90;;;;;;4960211;28;20074;-72
2024/01/13 04:59:26;;;;;;;0.30;0.30;;;3.70;99.90;;;;;;4957623;28;20445;-72
2024/01/13 05:01:53;;;;;;;1.02;0.65;;;3.70;99.90;;;;;;4971667;28;20037;-72
2024/01/13 05:04:19;;;;;;;6.32;0.65;;;3.70;99.90;;;;;;4971842;28;20050;-72
2024/01/13 05:06:44;;;;;;;1.27;0.35;;;3.70;99.90;;;;;;4969803;28;20039;-72
2024/01/13 05:09:11;;;;;;;2.65;0.73;;;3.70;99.90;;;;;;4967016;28;20046;-72
2024/01/13 05:11:36;;;;;;;0.85;0.43;;;3.70;99.90;;;;;;4979011;28;20038;-72
2024/01/13 05:14:02;;;;;;;0.15;0.10;;;3.70;99.90;;;;;;4971987;28;20153;-72
2024/01/13 05:16:28;;;;;;;0.38;0.20;;;3.70;99.90;;;;;;4971683;28;20050;-72
2024/01/13 05:18:53;;;;;;;0.10;0.00;;;3.80;99.90;;;;;;4954802;28;20508;-73
2024/01/13 05:21:19;;;;;;;2.35;0.68;;;3.70;99.90;;;;;;4963211;28;20042;-72
2024/01/13 05:23:45;;;;;;;0.20;0.20;;;3.70;99.90;;;;;;4959249;28;20031;-72
2024/01/13 05:26:11;;;;;;;0.57;0.30;;;3.70;99.90;;;;;;4972152;28;20038;-72
2024/01/13 05:28:37;;;;;;;0.32;0.20;;;3.70;99.90;;;;;;4969124;28;20116;-72
2024/01/13 05:31:03;;;;;;;0.43;0.30;;;3.80;99.90;;;;;;4959314;28;20038;-72
2024/01/13 05:33:29;;;;;;;1.42;0.52;;;3.70;99.90;;;;;;4969931;28;20042;-72
2024/01/13 05:35:54;;;;;;;0.65;0.52;;;3.70;99.90;;;;;;4971371;28;20169;-72
2024/01/13 05:38:20;;;;;;;0.45;0.20;;;3.70;99.90;;;;;;4956173;28;20049;-72
2024/01/13 05:40:47;;;;;;;0.57;0.38;;;3.70;99.90;;;;;;4970468;28;20117;-72
2024/01/13 05:43:13;;;;;;;0.77;0.10;;;3.70;99.90;;;;;;4972306;28;20537;-72
2024/01/13 05:45:39;;;;;;;0.20;0.20;;;3.70;99.90;;;;;;4958993;28;20118;-72
2024/01/13 05:48:05;;;;;;;0.10;0.10;;;3.60;99.90;;;;;;4970543;28;20070;-72
2024/01/13 05:50:31;;;;;;;3.47;0.35;;;3.60;99.90;;;;;;4988303;28;20162;-72
2024/01/13 05:52:56;;;;;;;0.03;0.03;;;3.60;99.90;;;;;;4988655;28;20435;-72
2024/01/13 05:55:22;;;;;;;0.10;0.10;;;3.60;99.90;;;;;;4990928;28;20037;-72
2024/01/13 05:57:48;;;;;;;0.05;0.05;;;3.70;99.90;;;;;;4993874;28;20049;-72
2024/01/13 06:00:14;;;;;;;0.00;0.00;;;3.60;99.90;;;;;;4994347;28;20029;-72
2024/01/13 06:02:40;;;;;;;0.35;0.10;;;3.60;99.90;;;;;;4993294;28;20361;-71
2024/01/13 06:05:06;;;;;;;0.20;0.10;;;3.60;99.90;;;;;;4993601;28;20208;-72
2024/01/13 06:07:32;;;;;;;0.20;0.00;;;3.60;99.90;;;;;;4992298;28;20041;-72
2024/01/13 06:09:58;;;;;;;1.27;0.10;;;3.70;99.90;;;;;;4978123;28;20120;-72
2024/01/13 06:12:23;;;;;;;0.17;0.13;;;3.60;99.90;;;;;;4993834;28;20716;-72
2024/01/13 06:14:49;;;;;;;0.00;0.00;;;3.60;99.90;;;;;;4994469;28;20382;-72
2024/01/13 06:17:15;;;;;;;0.60;0.10;;;3.60;99.90;;;;;;4993255;28;20077;-72
2024/01/13 06:19:41;;;;;;;0.40;0.25;;;3.70;99.90;;;;;;4992944;28;20571;-71
2024/01/13 06:22:07;;;;;;;0.05;0.00;;;3.60;99.90;;;;;;4991928;28;20358;-72
2024/01/13 06:24:33;;;;;;;0.00;0.00;;;3.70;99.90;;;;;;4993672;28;20054;-72
2024/01/13 06:26:59;;;;;;;0.65;0.35;;;3.70;99.90;;;;;;4992163;28;20034;-72
2024/01/13 06:29:25;;;;;;;0.20;0.17;;;3.70;99.90;;;;;;4993313;28;20572;-72
2024/01/13 06:31:51;;;;;;;0.17;0.08;;;3.70;99.90;;;;;;4975363;28;20033;-72
2024/01/13 06:34:16;;;;;;;0.95;0.40;;;3.70;99.90;;;;;;4992420;28;20454;-73
2024/01/13 06:36:42;;;;;;;0.28;0.25;;;3.70;99.90;;;;;;4990981;28;20133;-74
2024/01/13 06:39:08;;;;;;;0.15;0.10;;;3.70;99.90;;;;;;4990131;28;20163;-72
2024/01/13 06:41:34;;;;;;;0.32;0.15;;;3.80;99.90;;;;;;4981319;28;20501;-73
2024/01/13 06:43:59;;;;;;;0.55;0.10;;;3.70;99.90;;;;;;4992433;28;20069;-73
2024/01/13 06:46:25;;;;;;;0.20;0.10;;;3.70;99.90;;;;;;4975434;28;20149;-73
2024/01/13 06:48:51;;;;;;;0.20;0.10;;;3.70;99.90;;;;;;4994032;28;20061;-73
2024/01/13 06:51:16;;;;;;;0.68;0.30;;;3.80;99.90;;;;;;4991952;28;20464;-72
2024/01/13 06:53:42;;;;;;;0.20;0.20;;;3.70;99.90;;;;;;4991408;28;20469;-72
2024/01/13 06:56:11;;;;;;;0.20;0.10;;;3.70;99.90;;;;;;4992151;28;20088;-72
2024/01/13 06:58:37;;;;;;;0.55;0.20;;;3.70;99.90;;;;;;4992387;28;20143;-73
2024/01/13 07:01:02;;;;;;;0.28;0.10;;;3.80;99.90;;;;;;4991049;28;20042;-73
2024/01/13 07:03:28;;;;;;;0.30;0.30;;;3.80;99.90;;;;;;4984336;28;20033;-72
2024/01/13 07:05:54;;;;;;;0.50;0.40;;;3.80;99.90;;;;;;4975980;28;20508;-73
2024/01/13 07:08:20;;;;;;;0.47;0.30;;;3.80;99.90;;;;;;4991484;28;20042;-73
2024/01/13 07:10:48;;;;;;;1.48;0.22;;;3.80;99.90;;;;;;4992201;28;20504;-73
2024/01/13 07:13:14;;;;;;;0.08;0.08;;;3.80;99.90;;;;;;4981146;28;20038;-72
2024/01/13 07:15:39;;;;;;;0.38;0.20;;;3.80;99.90;;;;;;4991250;28;20112;-73
2024/01/13 07:18:05;;;;;;;0.10;0.10;;;3.80;99.90;;;;;;4991949;28;20056;-72
2024/01/13 07:20:31;;;;;;;0.65;0.30;;;3.80;99.90;;;;;;4978465;28;20046;-72
2024/01/13 07:22:56;;;;;;;0.17;0.10;;;3.80;99.90;;;;;;4991274;28;20498;-72
2024/01/13 07:25:22;;;;;;;0.22;0.22;;;3.80;99.90;;;;;;4973151;28;20103;-72
2024/01/13 07:27:48;;;;;;;0.20;0.10;;;3.90;99.90;;;;;;4992605;28;20385;-72
2024/01/13 07:30:14;;;;;;;0.17;0.10;;;3.80;99.90;;;;;;4989145;28;20104;-72
2024/01/13 07:32:40;;;;;;;0.13;0.10;;;3.90;99.90;;;;;;4993276;28;20397;-72
2024/01/13 07:35:06;;;;;;;0.40;0.22;;;3.90;99.90;;;;;;4995033;28;20363;-72
2024/01/13 07:37:32;;;;;;;0.25;0.10;;;3.90;99.90;;;;;;4982879;28;20453;-72
2024/01/13 07:39:57;;;;;;;0.00;0.00;;;3.90;99.90;;;;;;4956574;28;20046;-72
2024/01/13 07:42:23;;;;;;;0.25;0.15;;;3.90;99.90;;;;;;5005827;28;20225;-72
2024/01/13 07:44:49;;;;;;;0.00;0.00;;;3.90;99.90;;;;;;4992267;28;20041;-72
2024/01/13 07:47:14;;;;;;;0.10;0.10;;;4.00;99.90;;;;;;4992964;28;20029;-72
2024/01/13 07:49:40;;;;;;;0.10;0.10;;;3.90;99.90;;;;;;4983726;28;20049;-72
2024/01/13 07:52:06;;;;;;;0.00;0.00;;;3.90;99.90;;;;;;4992057;28;20433;-74
2024/01/13 07:54:33;;;;;;;0.08;0.08;;;3.90;99.90;;;;;;4990718;28;20053;-73
2024/01/13 07:56:59;;;;;;;0.40;0.32;;;4.00;99.90;;;;;;4989829;28;20268;-72
2024/01/13 07:59:25;;;;;;;0.20;0.15;;;3.90;99.90;;;;;;4988295;28;20046;-72
2024/01/13 08:01:51;;;;;;;0.10;0.10;;;3.90;99.90;;;;;;4990792;28;20034;-73
2024/01/13 08:04:16;;;;;;;0.20;0.10;;;3.90;99.90;;;;;;4975020;28;20583;-72
2024/01/13 08:06:43;;;;;;;0.10;0.10;;;3.90;99.90;;;;;;4971951;28;20422;-72
2024/01/13 08:09:08;;;;;;;0.00;0.00;;;3.90;99.90;;;;;;4991168;28;20184;-73
2024/01/13 08:11:34;;;;;;;0.40;0.40;;;4.00;99.90;;;;;;4987987;28;20477;-73
2024/01/13 08:14:00;;;;;;;0.50;0.25;;;3.90;99.90;;;;;;4988157;28;20046;-73
2024/01/13 08:16:26;;;;;;;0.10;0.10;;;3.90;99.90;;;;;;5002025;28;20054;-72
2024/01/13 08:18:52;;;;;;;0.32;0.10;;;3.90;99.90;;;;;;4973269;28;20060;-72
2024/01/13 08:21:18;;;;;;;0.00;0.00;;;3.90;99.90;;;;;;4991151;28;20044;-74
2024/01/13 08:23:44;;;;;;;3.55;0.63;;;4.00;99.90;;;;;;4989254;28;20537;-70
2024/01/13 08:26:09;;;;;;;0.30;0.17;;;3.90;99.90;;;;;;4990433;28;20045;-71
2024/01/13 08:28:35;;;;;;;0.63;0.45;;;3.90;99.90;;;;;;4990126;28;20414;-71
2024/01/13 08:31:01;;;;;;;0.38;0.35;;;3.90;99.90;;;;;;4968102;28;20034;-71
2024/01/13 08:33:27;;;;;;;0.95;0.63;;;3.90;99.90;;;;;;4972014;28;20049;-71
2024/01/13 08:35:52;;;;;;;1.02;0.68;;;4.00;99.90;;;;;;4988243;28;20053;-71
2024/01/13 08:38:18;;;;;;;2.15;0.70;;;3.90;99.90;;;;;;4974662;28;20042;-71
2024/01/13 08:40:45;;;;;;;0.70;0.60;;;4.00;99.90;;;;;;4991418;28;20045;-71
2024/01/13 08:43:11;;;;;;;1.17;0.80;;;4.00;99.90;;;;;;4991466;28;20084;-71
2024/01/13 08:45:37;;;;;;;1.27;0.85;;;4.00;99.90;;;;;;4990283;28;20073;-72
2024/01/13 08:48:03;;;;;;;3.15;1.55;;;4.00;99.90;;;;;;4974275;28;20112;-71
2024/01/13 08:50:31;;;;;;;3.80;2.20;;;4.00;99.90;;;;;;4990002;28;20125;-71
2024/01/13 08:52:57;;;;;;;7.00;1.98;;;4.00;99.90;;;;;;4985152;28;20104;-71
2024/01/13 08:55:24;;;;;;;2.88;1.67;;;4.00;99.90;;;;;;4991919;28;20489;-71
2024/01/13 08:57:50;;;;;;;4.40;3.38;;;4.10;99.90;;;;;;4973992;28;20049;-71
2024/01/13 09:00:16;;;;;;;5.15;3.50;;;4.10;99.90;;;;;;4989464;28;20578;-70
2024/01/13 09:02:43;;;;;;;20.45;3.30;;;4.10;99.90;;;;;;4991913;28;20049;-72
2024/01/13 09:05:09;;;;;;;3.88;2.83;;;4.10;99.90;;;;;;4987296;28;20048;-71
2024/01/13 09:07:36;;;;;;;4.82;2.85;;;4.10;99.90;;;;;;4990362;28;20187;-71
2024/01/13 09:10:02;;;;;;;3.83;2.28;;;4.00;99.90;;;;;;4990829;28;20050;-71
2024/01/13 09:12:28;;;;;;;7.40;3.10;;;4.10;99.90;;;;;;4991825;28;20042;-71
2024/01/13 09:14:54;;;;;;;5.65;2.97;;;4.10;99.90;;;;;;4988603;28;20030;-70
2024/01/13 09:17:19;;;;;;;7.38;3.75;;;4.10;99.90;;;;;;4990320;28;20525;-71
2024/01/13 09:19:45;;;;;;;5.75;2.97;;;4.10;99.90;;;;;;4981397;28;20034;-71
2024/01/13 09:22:11;;;;;;;11.50;3.72;;;4.10;99.90;;;;;;4989700;28;20041;-71
2024/01/13 09:24:37;;;;;;;5.88;3.97;;;4.10;99.90;;;;;;4997665;28;20034;-72
2024/01/13 09:27:03;;;;;;;6.70;3.55;;;4.10;99.90;;;;;;4992501;28;20061;-71
2024/01/13 09:29:29;;;;;;;7.07;3.70;;;4.10;99.90;;;;;;4990660;28;20485;-71
2024/01/13 09:31:54;;;;;;;4.80;2.42;;;4.10;99.90;;;;;;4997436;28;20045;-72
2024/01/13 09:34:20;;;;;;;8.07;4.82;;;4.10;99.90;;;;;;4995250;28;20478;-72
2024/01/13 09:36:46;;;;;;;6.75;3.65;;;4.10;99.90;;;;;;4996015;28;20468;-73
2024/01/13 09:39:14;;;;;;;8.50;4.13;;;4.10;99.90;;;;;;4996151;28;20046;-72
2024/01/13 09:41:49;;;;;;;10.50;5.07;;;4.10;99.90;;;;;;4996347;28;20049;-72
2024/01/13 09:44:20;;;;;;;14.35;5.50;;;4.10;99.90;;;;;;4988651;28;20048;-72
2024/01/13 09:46:46;;;;;;;10.23;7.10;;;4.20;99.90;;;;;;4994122;28;20112;-73
2024/01/13 09:49:15;;;;;;;14.65;5.53;;;4.20;99.90;;;;;;4987342;28;20085;-73
2024/01/13 09:51:42;;;;;;;12.18;6.60;;;4.10;99.90;;;;;;4997665;28;20061;-73
2024/01/13 09:54:28;;;;;;;10.75;5.00;;;4.20;99.90;;;;;;4994896;28;20135;-73
2024/01/13 09:56:55;;;;;;;12.25;7.00;;;4.20;99.90;;;;;;4980970;28;20501;-73
2024/01/13 09:59:22;;;;;;;9.57;4.93;;;4.20;99.90;;;;;;4989821;28;20058;-73
2024/01/13 10:01:57;;;;;;;10.15;5.88;;;4.20;99.90;;;;;;4994046;28;20121;-72
2024/01/13 10:04:23;;;;;;;8.98;4.18;;;4.20;99.90;;;;;;4979485;28;20053;-72
2024/01/13 10:06:49;;;;;;;10.70;6.30;;;4.20;99.90;;;;;;4975212;28;20042;-72
2024/01/13 10:09:15;;;;;;;10.07;5.68;;;4.20;99.90;;;;;;4984035;28;20125;-72
2024/01/13 10:11:42;;;;;;;13.05;8.02;;;4.30;99.90;;;;;;4999900;28;20070;-72
2024/01/13 10:14:11;;;;;;;14.35;6.85;;;4.30;99.90;;;;;;4976758;28;20042;-72
2024/01/13 10:16:37;;;;;;;9.38;6.03;;;4.30;99.90;;;;;;4984919;28;20506;-72
2024/01/13 10:19:08;;;;;;;8.88;5.35;;;4.30;99.90;;;;;;4987819;28;20113;-72
2024/01/13 10:21:35;;;;;;;8.95;6.13;;;4.30;99.90;;;;;;4997593;28;20050;-73
2024/01/13 10:24:02;;;;;;;7.07;4.70;;;4.40;99.90;;;;;;4996119;28;20043;-73
2024/01/13 10:26:29;;;;;;;9.48;6.70;;;4.30;99.90;;;;;;4998267;28;20518;-73
2024/01/13 10:28:56;;;;;;;9.63;6.10;;;4.40;99.90;;;;;;4977574;28;20133;-72
2024/01/13 10:31:23;;;;;;;11.18;6.03;;;4.40;99.90;;;;;;4996297;28;20060;-73
2024/01/13 10:33:50;;;;;;;11.13;5.25;;;4.40;99.90;;;;;;4997331;28;20409;-73
2024/01/13 10:36:19;;;;;;;20.00;7.10;;;4.40;99.90;;;;;;4991355;28;20125;-72
2024/01/13 10:38:45;;;;;;;11.00;5.72;;;4.40;99.90;;;;;;4967457;28;20347;-73
2024/01/13 10:41:11;;;;;;;13.05;7.25;;;4.40;99.90;;;;;;4975969;28;20117;-72
2024/01/13 10:43:41;;;;;;;14.93;7.03;;;4.40;99.90;;;;;;4974212;28;20045;-72
2024/01/13 10:46:12;;;;;;;10.75;5.78;;;4.40;99.90;;;;;;4989781;28;20501;-72
2024/01/13 10:48:46;;;;;;;13.00;6.97;;;4.30;99.90;;;;;;4977945;28;20050;-72
2024/01/13 10:51:31;;;;;;;12.93;6.38;;;4.40;99.90;;;;;;4974896;28;20072;-73
2024/01/13 10:53:59;;;;;;;16.98;8.60;;;4.40;99.90;;;;;;5005020;28;20060;-72
2024/01/13 10:56:27;;;;;;;12.00;7.38;;;4.40;99.90;;;;;;4993035;28;20064;-72
2024/01/13 10:58:54;;;;;;;9.13;6.70;;;4.50;99.90;;;;;;4991965;28;20045;-73
2024/01/13 11:01:20;;;;;;;10.90;6.93;;;4.50;99.90;;;;;;4993206;28;20045;-72
2024/01/13 11:03:49;;;;;;;12.32;6.60;;;4.50;99.90;;;;;;4993562;28;20265;-73
2024/01/13 11:06:16;;;;;;;8.27;5.80;;;4.50;99.90;;;;;;4984710;28;20521;-73
2024/01/13 11:08:45;;;;;;;13.73;6.78;;;4.50;99.90;;;;;;4977169;28;20453;-72
2024/01/13 11:11:16;;;;;;;14.30;8.40;;;4.40;99.90;;;;;;4968287;28;20070;-72
2024/01/13 11:13:56;;;;;;;11.52;6.20;;;4.50;99.90;;;;;;5004789;28;20069;-72
2024/01/13 11:16:25;;;;;;;9.88;5.55;;;4.50;99.90;;;;;;4990898;28;20081;-73
2024/01/13 11:18:52;;;;;;;13.23;6.78;;;4.50;99.90;;;;;;4974913;28;20076;-72
2024/01/13 11:21:19;;;;;;;6.25;5.05;;;4.60;99.90;;;;;;4988314;28;20035;-72
2024/01/13 11:23:51;;;;;;;8.95;6.05;;;4.60;99.90;;;;;;4991111;28;20501;-72
2024/01/13 11:26:27;;;;;;;8.00;5.60;;;4.60;99.90;;;;;;4991264;28;20122;-73
2024/01/13 11:28:55;;;;;;;11.90;6.70;;;4.50;99.90;;;;;;4975247;28;20042;-72
2024/01/13 11:31:31;;;;;;;10.20;6.28;;;4.50;99.90;;;;;;4992153;28;20049;-73
2024/01/13 11:34:01;;;;;;;8.82;5.65;;;4.50;99.90;;;;;;4989358;28;20084;-72
2024/01/13 11:36:33;;;;;;;17.08;8.32;;;4.60;99.90;;;;;;4987789;28;20042;-73
2024/01/13 11:39:00;;;;;;;16.33;6.50;;;4.60;99.90;;;;;;4991033;28;20083;-73
2024/01/13 11:41:48;;;;;;;9.82;5.35;;;4.60;99.90;;;;;;4971523;28;20257;-73
2024/01/13 11:44:25;;;;;;;7.15;5.40;;;4.50;99.90;;;;;;4983716;28;20085;-72
2024/01/13 11:47:05;;;;;;;9.10;6.60;;;4.60;99.90;;;;;;4982140;28;20088;-72
2024/01/13 11:49:40;;;;;;;11.27;6.43;;;4.60;99.90;;;;;;5008735;28;20248;-72
2024/01/13 11:52:16;;;;;;;8.38;4.18;;;4.70;99.90;;;;;;4991946;28;20497;-72
2024/01/13 11:54:45;;;;;;;10.85;4.85;;;4.70;99.90;;;;;;5007417;28;20038;-72
2024/01/13 11:57:17;;;;;;;10.23;5.28;;;4.80;99.90;;;;;;4988516;28;20077;-72
2024/01/13 11:59:43;;;;;;;11.23;7.07;;;4.70;99.90;;;;;;4972555;28;20629;-72
2024/01/13 12:02:09;;;;;;;8.18;4.07;;;4.70;99.90;;;;;;4988275;28;20030;-72
2024/01/13 12:04:36;;;;;;;5.47;4.40;;;4.80;99.90;;;;;;4990008;28;20061;-73
2024/01/13 12:07:08;;;;;;;9.75;4.38;;;4.80;99.90;;;;;;4990228;28;20050;-72
2024/01/13 12:09:34;;;;;;;5.95;3.38;;;4.80;99.90;;;;;;4990726;28;20052;-73
2024/01/13 12:12:02;;;;;;;6.97;4.22;;;4.80;99.90;;;;;;4987463;28;20050;-73
2024/01/13 12:14:37;;;;;;;5.50;3.35;;;4.90;99.90;;;;;;4975407;28;20049;-71
2024/01/13 12:17:05;;;;;;;9.95;5.28;;;5.00;99.90;;;;;;4991342;28;20045;-71
2024/01/13 12:19:33;;;;;;;10.45;3.53;;;5.00;99.90;;;;;;4974761;28;20099;-72
2024/01/13 12:21:59;;;;;;;7.03;4.45;;;5.00;99.90;;;;;;4989611;28;20044;-72
2024/01/13 12:24:29;;;;;;;6.82;4.95;;;5.10;99.90;;;;;;4991557;28;20049;-73
2024/01/13 12:26:56;;;;;;;6.85;3.97;;;5.10;99.90;;;;;;4991616;28;20049;-73
2024/01/13 12:29:29;;;;;;;5.07;3.92;;;5.10;99.90;;;;;;4989507;28;20066;-73
2024/01/13 12:32:04;;;;;;;4.70;3.20;;;5.00;99.90;;;;;;4975416;28;20085;-72
2024/01/13 12:34:38;;;;;;;8.20;4.53;;;5.00;99.90;;;;;;4968391;28;20144;-72
2024/01/13 12:37:05;;;;;;;5.07;2.90;;;5.00;99.90;;;;;;4984511;28;20163;-72
2024/01/13 12:39:31;;;;;;;7.72;4.30;;;5.00;99.90;;;;;;4983669;28;20042;-72
2024/01/13 12:41:57;;;;;;;5.70;4.32;;;5.00;99.90;;;;;;5002303;28;20091;-72
2024/01/13 12:44:25;;;;;;;6.38;3.95;;;5.00;99.90;;;;;;4987804;28;20043;-72
2024/01/13 12:46:58;;;;;;;8.27;5.15;;;5.00;99.90;;;;;;4972991;28;20039;-72
2024/01/13 12:49:24;;;;;;;13.65;4.90;;;4.90;99.90;;;;;;4981418;28;20097;-73
2024/01/13 12:51:52;;;;;;;7.07;4.78;;;5.00;99.90;;;;;;4988886;28;20064;-72
2024/01/13 12:54:21;;;;;;;5.72;3.97;;;5.00;99.90;;;;;;4990975;28;20045;-73